• Join FlightAware (Why Join?)
  • Login
  • US Flag 
12:57AM EDT


 

Airport Tracker/Info


-or-


 

Live Flight TrackerFlight Track Log ✈ N650RP ✈ 20-Feb-2014 ✈ KFMY - KSUA

Flight Track Log - Related Links

Times and Time Zones

All times are in EST time to prevent confusion due to time zone crossing. See the N650RP flight status page for this flight to view local times or setup timezone preferences in your user account.

Time Position Orientation Groundspeed Altitude Reporting Facility
EST Latitude Longitude Course Direction KTS MPH feet Rate Location/Type
04:36PM 26.5917 -82.0461 338° Northwest 229 264 8,000  Level Miami Center
04:37PM 26.6272 -81.9825 58° Northeast 186 214 9,600 1,320 Climbing Miami Center
04:38PM 26.6592 -81.9072 65° Northeast 221 254 10,700 660 Climbing Miami Center
04:39PM 26.7557 -81.4037 81° East  Level Estimated
04:39PM 26.6892 -81.8294 67° East 245 282 11,000  Level Miami Center
04:40PM 26.6922 -81.7367 88° East 280 322 10,900  Descending Miami Center
04:41PM 26.7036 -81.6442 82° East 280 322 11,000  Climbing Miami Center
04:42PM 26.7106 -81.5561 85° East 280 322 11,000  Level Miami Center
04:43PM 26.7197 -81.4658 83° East 275 316 11,000  Level Miami Center
04:44PM 26.7289 -81.3756 83° East 281 323 11,000  Level Miami Center
04:45PM 26.7358 -81.2875 85° East 287 330 11,000  Level Miami Center
04:46PM 26.7428 -81.1969 85° East 287 330 11,000 -60 Level Miami Center
04:47PM 26.7517 -81.1067 84° East 287 330 10,900  Descending Miami Center
04:48PM 26.7586 -81.0117 85° East 302 348 11,100 -360 Climbing Miami Center
04:49PM 26.7694 -80.9167 83° East 307 353 10,200 -540 Descending Miami Center
04:50PM 26.7739 -80.8378 86° East 288 331 10,100 -60 Descending Miami Center
04:51PM 26.7764 -80.7469 88° East 273 314 10,100 -60 Level Miami Center
04:52PM 26.7972 -80.6639 74° East 273 314 10,000 -120 Descending Miami Center
04:53PM 26.8492 -80.5936 50° Northeast 289 333 9,900 -840 Descending Miami Center
04:54PM 26.8947 -80.5297 51° Northeast 289 333 8,400 -1,560 Descending Miami Center
04:55PM 26.9444 -80.4614 51° Northeast 283 326 6,800 -1,560 Descending Miami Center
04:56PM 27.0025 -80.3886 48° Northeast 278 320 5,300 -1,440 Descending Miami Center
04:57PM 27.0542 -80.3319 44° Northeast 273 314 4,000 -1,200 Descending Miami Center
04:58PM 27.1194 -80.3083 18° North 245 282 2,900 -1,140 Descending Miami Center
05:00PM 27.1667 -80.2167 42° Northeast  Level FlightAware Approximate